This is the latest recevied weather packets stored in our database for station/object WX2NJ-13. If no packets are shown the sender has not sent any weather packets the latest 10 day(s).
| Time | Temp. | Humidity | Pressure | Rain* | Wind** | Luminosity | Snow |
|---|---|---|---|---|---|---|---|
| 1777677200 | 13.89° C | 62% | 1012 hPa | 0 mm | 0.89 m/s, 162° | - | - |
| 1777676901 | 13.89° C | 62% | 1012 hPa | 0 mm | 0.89 m/s, 153° | - | - |
| 1777676600 | 13.89° C | 61% | 1012 hPa | 0 mm | 0.89 m/s, 145° | - | - |
| 1777676302 | 14.44° C | 61% | 1012 hPa | 0 mm | 1.34 m/s, 173° | - | - |
| 1777676003 | 14.44° C | 60% | 1012 hPa | 0 mm | 1.34 m/s, 191° | - | - |
| 1777675702 | 14.44° C | 61% | 1011.9 hPa | 0 mm | 0.89 m/s, 174° | - | - |
| 1777675403 | 14.44° C | 60% | 1011.8 hPa | 0 mm | 0.45 m/s, 148° | - | - |
| 1777675105 | 15° C | 60% | 1011.8 hPa | 0 mm | 0.89 m/s, 190° | - | - |
| 1777674803 | 15° C | 58% | 1011.7 hPa | 0 mm | 1.34 m/s, 184° | - | - |
| 1777674505 | 15° C | 58% | 1011.8 hPa | 0 mm | 1.79 m/s, 201° | - | - |
| 1777674207 | 15.56° C | 56% | 1011.8 hPa | 0 mm | 1.34 m/s, 156° | - | - |
| 1777673905 | 15.56° C | 56% | 1011.7 hPa | 0 mm | 1.34 m/s, 153° | - | - |
| 1777673606 | 15.56° C | 56% | 1011.7 hPa | 0 mm | 1.79 m/s, 165° | - | - |
| 1777673308 | 15.56° C | 56% | 1011.7 hPa | 0 mm | 1.34 m/s, 141° | - | - |
| 1777673006 | 15.56° C | 55% | 1011.7 hPa | 0 mm | 0 m/s | - | - |
| 1777672708 | 16.11° C | 53% | 1011.7 hPa | 0 mm | 1.79 m/s, 193° | - | - |
| 1777672409 | 16.11° C | 52% | 1011.7 hPa | 0 mm | 0.89 m/s, 177° | - | - |
| 1777672108 | 16.11° C | 53% | 1011.9 hPa | 0 mm | 1.79 m/s, 177° | - | - |
| 1777671809 | 16.11° C | 55% | 1011.8 hPa | 0 mm | 1.34 m/s, 163° | - | - |
| 1777671511 | 16.11° C | 57% | 1011.9 hPa | 0 mm | 0.45 m/s, 122° | - | - |
| 1777671209 | 16.11° C | 56% | 1011.9 hPa | 0 mm | 0.89 m/s, 153° | - | - |
| 1777670911 | 16.67° C | 54% | 1011.9 hPa | 0 mm | 1.34 m/s, 181° | - | - |
| 1777670612 | 17.22° C | 52% | 1012 hPa | 0 mm | 1.34 m/s, 179° | - | - |
| 1777670311 | 17.22° C | 51% | 1012 hPa | 0 mm | 1.34 m/s, 208° | - | - |
| 1777670012 | 17.78° C | 53% | 1011.9 hPa | 0 mm | 1.34 m/s, 135° | - | - |
* Rain latest hour (hover to see other rain measurements)
** Current wind speed in m/s (hover to see current wind gust speed)